Time;durP1;ratioP1;P1;durP2;ratioP2;P2;SDS_P1;SDS_P2;PMS_P1;PMS_P2;Temp;Humidity;BMP_temperature;BMP_pressure;BME280_temperature;BME280_humidity;BME280_pressure;Samples;Min_cycle;Max_cycle;Signal;HPM_P1;HPM_P2
2023/10/07 00:01:45;;;;;;;9.10;6.30;;;11.70;99.90;;;;;;5025023;28;20099;-67
2023/10/07 00:04:17;;;;;;;13.20;6.30;;;11.70;99.90;;;;;;5036147;28;20068;-68
2023/10/07 00:06:49;;;;;;;11.85;6.20;;;11.60;99.90;;;;;;5035453;28;20049;-67
2023/10/07 00:09:22;;;;;;;9.57;6.05;;;11.50;99.90;;;;;;5033023;28;20125;-69
2023/10/07 00:11:54;;;;;;;8.95;6.57;;;11.40;99.90;;;;;;5032968;28;20041;-69
2023/10/07 00:14:30;;;;;;;12.10;8.02;;;11.30;99.90;;;;;;5036282;28;20049;-68
2023/10/07 00:17:08;;;;;;;13.93;7.55;;;11.30;99.90;;;;;;5036430;28;20051;-69
2023/10/07 00:19:41;;;;;;;12.00;7.70;;;11.10;99.90;;;;;;5038445;28;20509;-67
2023/10/07 00:22:14;;;;;;;13.38;8.25;;;11.10;99.90;;;;;;5037402;28;20030;-67
2023/10/07 00:24:48;;;;;;;10.40;7.57;;;11.00;99.90;;;;;;5036299;28;20041;-67
2023/10/07 00:27:26;;;;;;;11.93;7.43;;;11.00;99.90;;;;;;5032535;28;20025;-67
2023/10/07 00:30:00;;;;;;;11.82;8.10;;;10.90;99.90;;;;;;5042766;28;20382;-67
2023/10/07 00:32:28;;;;;;;12.23;8.18;;;11.00;99.90;;;;;;5035609;28;20072;-68
2023/10/07 00:35:00;;;;;;;15.95;8.93;;;10.80;99.90;;;;;;5044960;28;20075;-67
2023/10/07 00:37:33;;;;;;;11.30;7.57;;;10.80;99.90;;;;;;5017820;28;20051;-68
2023/10/07 00:40:25;;;;;;;13.15;8.35;;;10.70;99.90;;;;;;5037111;28;20041;-67
2023/10/07 00:42:57;;;;;;;11.98;7.97;;;10.70;99.90;;;;;;5036840;28;20041;-67
2023/10/07 00:45:30;;;;;;;10.23;7.13;;;10.60;99.90;;;;;;5027346;28;20037;-68
2023/10/07 00:48:07;;;;;;;12.07;7.63;;;10.50;99.90;;;;;;5046134;28;20029;-67
2023/10/07 00:50:40;;;;;;;13.70;7.68;;;10.40;99.90;;;;;;5037703;28;20048;-67
2023/10/07 00:53:12;;;;;;;12.27;8.23;;;10.40;99.90;;;;;;5043323;28;20501;-67
2023/10/07 00:55:46;;;;;;;12.65;7.88;;;10.30;99.90;;;;;;5020351;28;20056;-67
2023/10/07 00:58:26;;;;;;;11.57;8.70;;;10.20;99.90;;;;;;5024613;28;20037;-68
2023/10/07 01:01:05;;;;;;;11.43;8.50;;;10.20;99.90;;;;;;5032780;28;20420;-68
2023/10/07 01:03:47;;;;;;;13.52;7.93;;;10.20;99.90;;;;;;5028901;28;20612;-67
2023/10/07 01:06:25;;;;;;;11.70;8.32;;;10.20;99.90;;;;;;5029357;28;20437;-67
2023/10/07 01:09:09;;;;;;;10.95;7.60;;;10.30;99.90;;;;;;5034736;28;20491;-67
2023/10/07 01:11:45;;;;;;;10.73;7.55;;;10.30;99.90;;;;;;5034509;28;20506;-69
2023/10/07 01:14:20;;;;;;;14.75;8.45;;;10.30;99.90;;;;;;5038397;28;20506;-69
2023/10/07 01:16:53;;;;;;;10.48;8.25;;;10.30;99.90;;;;;;5038171;28;20409;-69
2023/10/07 01:22:09;;;;;;;12.68;8.65;;;10.30;99.90;;;;;;5038989;28;20033;-67
2023/10/07 01:30:13;;;;;;;15.48;10.43;;;10.30;99.90;;;;;;5040026;28;20045;-68
2023/10/07 01:35:39;;;;;;;12.73;9.07;;;10.20;99.90;;;;;;5039480;28;20055;-66
2023/10/07 01:38:17;;;;;;;14.82;9.40;;;10.20;99.90;;;;;;5020292;28;20041;-67
2023/10/07 01:43:24;;;;;;;11.57;9.23;;;10.10;99.90;;;;;;5043552;28;20422;-67
2023/10/07 01:45:52;;;;;;;11.95;8.73;;;10.00;99.90;;;;;;5035710;28;20044;-70
2023/10/07 01:48:25;;;;;;;11.55;8.93;;;9.90;99.90;;;;;;5039079;28;20498;-67
2023/10/07 01:50:58;;;;;;;12.63;9.50;;;9.80;99.90;;;;;;5036880;28;20073;-67
2023/10/07 01:53:32;;;;;;;11.00;9.05;;;9.80;99.90;;;;;;5041722;28;20037;-68
2023/10/07 01:56:05;;;;;;;13.68;9.63;;;9.80;99.90;;;;;;5041150;28;20118;-69
2023/10/07 01:58:32;;;;;;;12.98;9.27;;;9.70;99.90;;;;;;5036041;28;20049;-67
2023/10/07 02:01:05;;;;;;;14.95;9.82;;;9.60;99.90;;;;;;5021805;28;20045;-69
2023/10/07 02:03:37;;;;;;;11.68;8.90;;;9.60;99.90;;;;;;5032829;28;20037;-69
2023/10/07 02:06:05;;;;;;;16.13;9.27;;;9.50;99.90;;;;;;5026593;28;20030;-68
2023/10/07 02:08:37;;;;;;;11.77;9.13;;;9.50;99.90;;;;;;5035269;28;20501;-68
2023/10/07 02:11:09;;;;;;;12.73;9.10;;;9.50;99.90;;;;;;5039347;28;20037;-68
2023/10/07 02:13:41;;;;;;;13.38;9.32;;;9.40;99.90;;;;;;5044125;28;20055;-69
2023/10/07 02:16:16;;;;;;;13.52;9.45;;;9.40;99.90;;;;;;5040330;28;20049;-69
2023/10/07 02:18:48;;;;;;;14.93;8.98;;;9.40;99.90;;;;;;5042986;28;20042;-67
2023/10/07 02:21:20;;;;;;;11.82;8.80;;;9.40;99.90;;;;;;5038761;28;20123;-68
2023/10/07 02:23:52;;;;;;;12.75;8.90;;;9.40;99.90;;;;;;5027053;28;20053;-68
2023/10/07 02:26:27;;;;;;;13.20;9.77;;;9.40;99.90;;;;;;5024366;28;20088;-68
2023/10/07 02:29:06;;;;;;;13.75;9.60;;;9.40;99.90;;;;;;5034784;28;20103;-68
2023/10/07 02:31:44;;;;;;;13.38;9.43;;;9.40;99.90;;;;;;5024996;28;20049;-68
2023/10/07 02:34:28;;;;;;;14.93;10.65;;;9.40;99.90;;;;;;5037173;28;20049;-68
2023/10/07 02:37:12;;;;;;;15.52;10.05;;;9.40;99.90;;;;;;5035513;28;20513;-68
2023/10/07 02:39:46;;;;;;;18.40;12.63;;;9.40;99.90;;;;;;5037186;28;20682;-68
2023/10/07 02:42:21;;;;;;;14.40;10.25;;;9.40;99.90;;;;;;5046713;28;20060;-67
2023/10/07 02:45:20;;;;;;;14.95;10.57;;;9.40;99.90;;;;;;5040700;28;20041;-69
2023/10/07 02:47:54;;;;;;;19.13;11.75;;;9.40;99.90;;;;;;5036453;28;20075;-68
2023/10/07 02:50:26;;;;;;;14.85;10.38;;;9.40;99.90;;;;;;5035466;28;20045;-68
2023/10/07 02:52:54;;;;;;;17.10;11.65;;;9.40;99.90;;;;;;5039906;28;20048;-68
2023/10/07 02:55:37;;;;;;;17.65;12.63;;;9.40;99.90;;;;;;5037716;28;20692;-68
2023/10/07 02:58:05;;;;;;;14.70;10.75;;;9.40;99.90;;;;;;5037431;28;20095;-67
2023/10/07 03:00:38;;;;;;;15.43;11.68;;;9.40;99.90;;;;;;5019820;28;20375;-67
2023/10/07 03:05:44;;;;;;;16.45;11.63;;;9.30;99.90;;;;;;5035909;28;20057;-69
2023/10/07 03:08:21;;;;;;;18.23;11.82;;;9.30;99.90;;;;;;5035116;28;20040;-69
2023/10/07 03:11:09;;;;;;;15.70;11.18;;;9.30;99.90;;;;;;5034125;28;20049;-69
2023/10/07 03:13:49;;;;;;;16.42;11.38;;;9.30;99.90;;;;;;5028158;28;20056;-68
2023/10/07 03:19:52;;;;;;;15.45;11.45;;;9.20;99.90;;;;;;5045052;28;20136;-68
2023/10/07 03:24:29;;;;;;;17.77;11.90;;;9.20;99.90;;;;;;5038000;28;20045;-68
2023/10/07 03:27:10;;;;;;;16.35;11.35;;;9.10;99.90;;;;;;5038395;28;20463;-67
2023/10/07 03:30:07;;;;;;;17.33;12.18;;;9.10;99.90;;;;;;5038918;28;20037;-68
2023/10/07 03:32:54;;;;;;;18.90;11.63;;;9.10;99.90;;;;;;5036462;28;20051;-68
2023/10/07 03:36:07;;;;;;;22.70;12.73;;;9.10;99.90;;;;;;5045800;28;20052;-68
2023/10/07 03:38:29;;;;;;;20.77;12.13;;;9.00;99.90;;;;;;5037646;28;20060;-69
2023/10/07 03:41:09;;;;;;;18.65;11.65;;;9.00;99.90;;;;;;5023106;28;20128;-68
2023/10/07 03:43:41;;;;;;;17.30;11.07;;;9.00;99.90;;;;;;5034583;28;20056;-67
2023/10/07 03:46:16;;;;;;;16.67;11.35;;;9.00;99.90;;;;;;5038221;28;20045;-67
2023/10/07 03:48:55;;;;;;;16.98;12.32;;;8.90;99.90;;;;;;5036471;28;20044;-68
2023/10/07 03:51:30;;;;;;;16.50;11.70;;;8.90;99.90;;;;;;5040961;28;20544;-67
2023/10/07 03:54:15;;;;;;;14.10;11.48;;;8.90;99.90;;;;;;5041229;28;20043;-68
2023/10/07 03:56:49;;;;;;;14.77;11.27;;;8.80;99.90;;;;;;5039655;28;20045;-68
2023/10/07 03:59:21;;;;;;;15.57;10.85;;;8.80;99.90;;;;;;5039324;28;20056;-68
2023/10/07 04:01:53;;;;;;;15.98;11.18;;;8.70;99.90;;;;;;5036206;28;20517;-68
2023/10/07 04:04:22;;;;;;;14.00;10.10;;;8.70;99.90;;;;;;5041329;28;20036;-68
2023/10/07 04:06:54;;;;;;;14.05;10.38;;;8.70;99.90;;;;;;5039958;28;20045;-67
2023/10/07 04:09:32;;;;;;;14.35;10.07;;;8.70;99.90;;;;;;5034284;28;20065;-67
2023/10/07 04:12:06;;;;;;;15.15;10.50;;;8.60;99.90;;;;;;5032076;28;20041;-68
2023/10/07 04:14:35;;;;;;;15.45;10.32;;;8.60;99.90;;;;;;5041110;28;20037;-68
2023/10/07 04:17:11;;;;;;;15.57;10.77;;;8.50;99.90;;;;;;5037934;28;20033;-68
2023/10/07 04:19:40;;;;;;;13.65;10.30;;;8.50;99.90;;;;;;5034207;28;20390;-67
2023/10/07 04:22:12;;;;;;;16.42;11.63;;;8.50;99.90;;;;;;5040960;28;20398;-67
2023/10/07 04:24:44;;;;;;;16.85;11.63;;;8.50;99.90;;;;;;5037499;28;20041;-68
2023/10/07 04:27:21;;;;;;;17.60;12.18;;;8.50;99.90;;;;;;5038567;28;20460;-68
2023/10/07 04:29:53;;;;;;;17.33;11.32;;;8.60;99.90;;;;;;5038229;28;20041;-68
2023/10/07 04:32:25;;;;;;;18.77;12.35;;;8.60;99.90;;;;;;5036148;28;20056;-68
2023/10/07 04:35:16;;;;;;;22.38;13.98;;;8.60;99.90;;;;;;5034761;28;20049;-67
2023/10/07 04:37:54;;;;;;;23.90;15.25;;;8.70;99.90;;;;;;5041405;28;20076;-67
2023/10/07 04:40:53;;;;;;;22.48;14.60;;;8.80;99.90;;;;;;5040131;28;20127;-68
2023/10/07 04:43:47;;;;;;;23.40;15.80;;;8.90;99.90;;;;;;5032148;28;20069;-68
2023/10/07 04:46:23;;;;;;;22.20;15.88;;;8.90;99.90;;;;;;5040806;28;20129;-68
2023/10/07 04:48:59;;;;;;;27.73;16.42;;;8.90;99.90;;;;;;5031251;28;20128;-68
2023/10/07 04:54:04;;;;;;;22.00;14.27;;;8.90;99.90;;;;;;5037975;28;20040;-68
2023/10/07 04:56:33;;;;;;;19.55;13.57;;;8.90;99.90;;;;;;5035423;28;20041;-68
2023/10/07 04:59:09;;;;;;;21.25;14.45;;;8.90;99.90;;;;;;5035565;28;20045;-68
2023/10/07 05:01:41;;;;;;;22.17;14.40;;;8.90;99.90;;;;;;5035752;28;20470;-68
2023/10/07 05:04:15;;;;;;;24.60;15.68;;;8.90;99.90;;;;;;5058044;28;20037;-67
2023/10/07 05:06:47;;;;;;;28.73;16.83;;;8.90;99.90;;;;;;5039889;28;20033;-68
2023/10/07 05:09:21;;;;;;;25.58;15.65;;;8.90;99.90;;;;;;5042886;28;20142;-68
2023/10/07 05:11:53;;;;;;;18.50;13.55;;;8.80;99.90;;;;;;5047097;28;20064;-68
2023/10/07 05:14:22;;;;;;;23.58;14.73;;;8.80;99.90;;;;;;5040692;28;20035;-68
2023/10/07 05:16:58;;;;;;;22.38;13.25;;;8.70;99.90;;;;;;5044848;28;20041;-68
2023/10/07 05:19:27;;;;;;;19.15;13.38;;;8.70;99.90;;;;;;5044028;28;20045;-68
2023/10/07 05:22:14;;;;;;;22.65;13.02;;;8.60;99.90;;;;;;5037758;28;20133;-68
2023/10/07 05:24:46;;;;;;;23.50;14.15;;;8.60;99.90;;;;;;5032027;28;20053;-68
2023/10/07 05:27:14;;;;;;;27.05;16.38;;;8.60;99.90;;;;;;5038104;28;20566;-68
2023/10/07 05:29:48;;;;;;;18.55;13.57;;;8.60;99.90;;;;;;5041929;28;20114;-68
2023/10/07 05:32:18;;;;;;;35.83;19.40;;;8.80;99.90;;;;;;5037060;28;20069;-68
2023/10/07 05:34:50;;;;;;;38.50;20.37;;;9.30;99.90;;;;;;5040916;28;20119;-66
2023/10/07 05:37:24;;;;;;;21.13;14.52;;;9.30;99.90;;;;;;5037352;28;20295;-68
2023/10/07 05:39:56;;;;;;;23.13;15.10;;;9.30;99.90;;;;;;5038838;28;20124;-68
2023/10/07 05:42:28;;;;;;;18.75;13.32;;;9.10;99.90;;;;;;5032679;28;20044;-68
2023/10/07 05:45:02;;;;;;;17.63;12.32;;;9.00;99.90;;;;;;5027655;28;20513;-68
2023/10/07 05:47:36;;;;;;;26.33;14.25;;;8.90;99.90;;;;;;5043053;28;20052;-68
2023/10/07 05:50:08;;;;;;;22.52;14.88;;;9.20;99.90;;;;;;5042048;28;20045;-70
2023/10/07 05:52:41;;;;;;;22.70;17.40;;;9.40;99.90;;;;;;5024559;28;20044;-68
2023/10/07 05:55:13;;;;;;;22.55;15.00;;;9.30;99.90;;;;;;5024170;28;20053;-70
2023/10/07 05:57:40;;;;;;;22.13;16.08;;;9.10;99.90;;;;;;5039674;28;20128;-67
2023/10/07 06:00:12;;;;;;;27.90;15.60;;;9.00;99.90;;;;;;5041850;28;20095;-67
2023/10/07 06:02:44;;;;;;;40.47;24.85;;;8.90;99.90;;;;;;5041680;28;20055;-68
2023/10/07 06:05:19;;;;;;;43.85;26.30;;;8.80;99.90;;;;;;5031865;28;20471;-68
2023/10/07 06:07:50;;;;;;;91.05;51.42;;;8.80;99.90;;;;;;5028460;28;20057;-68
2023/10/07 06:10:24;;;;;;;54.65;31.92;;;8.80;99.90;;;;;;5044050;28;20041;-68
2023/10/07 06:12:53;;;;;;;46.53;29.38;;;8.80;99.90;;;;;;5036597;28;20129;-69
2023/10/07 06:15:25;;;;;;;33.40;20.42;;;8.80;99.90;;;;;;5037764;28;20078;-68
2023/10/07 06:17:57;;;;;;;31.50;18.40;;;9.00;99.90;;;;;;5036726;28;20712;-67
2023/10/07 06:20:36;;;;;;;22.05;13.43;;;9.10;99.90;;;;;;5038890;28;20045;-68
2023/10/07 06:23:13;;;;;;;23.48;14.10;;;9.00;99.90;;;;;;5046401;28;20092;-69
2023/10/07 06:25:43;;;;;;;19.90;14.57;;;8.90;99.90;;;;;;5046769;28;20524;-68
2023/10/07 06:28:29;;;;;;;22.10;15.50;;;8.80;99.90;;;;;;5038663;28;20124;-68
2023/10/07 06:31:10;;;;;;;20.50;13.93;;;8.80;99.90;;;;;;5040729;28;20111;-69
2023/10/07 06:33:59;;;;;;;21.98;13.45;;;9.00;99.90;;;;;;5036898;28;20128;-68
2023/10/07 06:36:30;;;;;;;19.58;13.23;;;9.30;99.90;;;;;;5037849;28;20124;-69
2023/10/07 06:39:02;;;;;;;18.10;12.05;;;9.70;99.90;;;;;;5039716;28;20048;-69
2023/10/07 06:41:35;;;;;;;18.90;12.80;;;9.90;99.90;;;;;;5044085;28;20037;-68
2023/10/07 06:44:03;;;;;;;18.05;12.10;;;10.10;99.90;;;;;;5038679;28;20033;-68
2023/10/07 06:46:41;;;;;;;17.20;12.27;;;10.20;99.90;;;;;;5034347;28;20041;-68
2023/10/07 06:49:20;;;;;;;15.68;11.45;;;10.40;99.90;;;;;;5040742;28;20039;-68
2023/10/07 06:51:53;;;;;;;16.15;10.32;;;10.50;99.90;;;;;;5038309;28;20052;-68
2023/10/07 06:54:32;;;;;;;15.57;10.60;;;10.60;99.90;;;;;;5036352;28;20052;-67
2023/10/07 06:57:10;;;;;;;14.85;10.15;;;10.80;99.90;;;;;;5044754;28;20037;-67
2023/10/07 06:59:45;;;;;;;14.57;9.75;;;11.00;99.90;;;;;;5042250;28;20068;-67
2023/10/07 07:02:18;;;;;;;18.92;10.95;;;11.20;99.90;;;;;;5037351;28;20513;-68
2023/10/07 07:04:51;;;;;;;13.82;9.90;;;11.30;99.90;;;;;;5037855;28;20049;-67
2023/10/07 07:07:23;;;;;;;13.02;9.60;;;11.30;99.90;;;;;;5037764;28;20033;-68
2023/10/07 07:09:58;;;;;;;14.80;10.35;;;11.40;99.90;;;;;;5037418;28;20065;-67
2023/10/07 07:12:32;;;;;;;16.60;10.80;;;11.40;99.90;;;;;;5041349;28;20051;-68
2023/10/07 07:15:05;;;;;;;17.73;12.63;;;11.30;99.90;;;;;;5043281;28;20133;-69
2023/10/07 07:17:37;;;;;;;15.05;11.32;;;11.30;99.90;;;;;;5035397;28;20047;-65
2023/10/07 07:22:42;;;;;;;17.13;11.10;;;11.40;99.90;;;;;;5039869;28;20038;-72
2023/10/07 07:25:10;;;;;;;13.95;10.68;;;11.40;99.90;;;;;;5039509;28;20041;-67
2023/10/07 07:27:48;;;;;;;13.38;9.80;;;11.50;99.90;;;;;;5034689;28;20033;-69
2023/10/07 07:30:29;;;;;;;16.63;9.98;;;11.60;99.90;;;;;;5041049;28;20132;-67
2023/10/07 07:33:07;;;;;;;12.90;9.27;;;11.70;99.90;;;;;;5019652;28;20122;-67
2023/10/07 07:35:41;;;;;;;14.80;10.27;;;11.80;99.90;;;;;;5040750;28;20037;-69
2023/10/07 07:38:29;;;;;;;14.20;10.30;;;12.00;99.90;;;;;;5034685;28;20593;-67
2023/10/07 07:41:06;;;;;;;13.57;9.73;;;12.10;99.90;;;;;;5040572;28;20041;-69
2023/10/07 07:43:39;;;;;;;12.63;9.75;;;12.20;99.90;;;;;;5043076;28;20132;-67
2023/10/07 07:46:26;;;;;;;10.40;8.82;;;12.30;99.90;;;;;;5039679;28;20033;-68
2023/10/07 07:49:06;;;;;;;15.27;8.48;;;12.40;99.90;;;;;;5041533;28;20040;-67
2023/10/07 07:51:39;;;;;;;13.77;8.07;;;12.50;99.90;;;;;;5039140;28;20041;-68
2023/10/07 07:54:14;;;;;;;8.00;5.57;;;12.70;99.90;;;;;;5039949;28;20050;-68
2023/10/07 07:56:42;;;;;;;11.48;6.05;;;13.00;99.90;;;;;;5039088;28;20504;-68
2023/10/07 07:59:14;;;;;;;10.50;6.75;;;13.20;99.90;;;;;;5040292;28;20056;-68
2023/10/07 08:01:53;;;;;;;11.30;6.00;;;13.30;99.90;;;;;;5020511;28;20519;-68
2023/10/07 08:04:39;;;;;;;11.75;6.00;;;13.50;99.90;;;;;;5044758;28;20072;-68
2023/10/07 08:07:32;;;;;;;10.20;6.22;;;13.70;99.90;;;;;;5036397;28;20045;-68
2023/10/07 08:10:03;;;;;;;8.57;5.15;;;13.80;99.90;;;;;;5041111;28;20635;-67
2023/10/07 08:12:33;;;;;;;10.90;5.60;;;14.00;99.90;;;;;;5032343;28;20063;-67
2023/10/07 08:16:09;;;;;;;9.35;6.43;;;14.10;99.90;;;;;;5035933;28;20052;-68
2023/10/07 08:18:06;;;;;;;9.65;6.07;;;14.20;99.90;;;;;;5030171;28;20056;-67
2023/10/07 08:20:44;;;;;;;9.32;6.18;;;14.40;99.90;;;;;;5033059;28;20068;-68
2023/10/07 08:23:40;;;;;;;10.95;5.85;;;14.50;99.90;;;;;;5035114;28;20056;-67
2023/10/07 08:26:13;;;;;;;11.27;7.20;;;14.60;99.90;;;;;;5039615;28;20048;-67
2023/10/07 08:28:47;;;;;;;9.90;5.93;;;14.70;99.90;;;;;;5033623;28;20160;-68
2023/10/07 08:31:19;;;;;;;12.07;5.93;;;14.80;99.90;;;;;;5037860;28;20409;-69
2023/10/07 08:34:09;;;;;;;9.50;6.38;;;14.90;99.90;;;;;;5037520;28;20044;-68
2023/10/07 08:36:37;;;;;;;8.82;5.82;;;15.00;99.90;;;;;;5038347;28;20160;-67
2023/10/07 08:39:09;;;;;;;9.90;6.60;;;15.10;99.90;;;;;;5036617;28;20041;-68
2023/10/07 08:41:44;;;;;;;8.10;5.72;;;15.20;99.90;;;;;;5034065;28;20052;-70
2023/10/07 08:44:22;;;;;;;11.20;6.93;;;15.30;99.90;;;;;;5033292;28;20030;-69
2023/10/07 08:47:03;;;;;;;11.73;6.75;;;15.40;99.90;;;;;;5038922;28;20037;-67
2023/10/07 08:49:36;;;;;;;9.68;7.15;;;15.50;99.90;;;;;;5035612;28;20060;-68
2023/10/07 08:52:11;;;;;;;9.93;6.00;;;15.60;99.90;;;;;;5034841;28;20037;-67
2023/10/07 08:54:47;;;;;;;10.25;6.28;;;15.70;99.90;;;;;;5037065;28;20049;-67
2023/10/07 08:57:22;;;;;;;8.07;5.97;;;15.80;99.90;;;;;;5035144;28;20038;-68
2023/10/07 08:59:52;;;;;;;9.50;5.28;;;15.90;99.90;;;;;;5035540;28;20048;-69
2023/10/07 09:02:30;;;;;;;7.60;4.78;;;16.00;99.90;;;;;;5034995;28;20049;-68
2023/10/07 09:05:19;;;;;;;7.95;5.15;;;16.10;99.90;;;;;;5036527;28;20037;-68
2023/10/07 09:07:51;;;;;;;9.10;4.95;;;16.10;99.90;;;;;;5035333;28;20126;-68
2023/10/07 09:10:19;;;;;;;8.77;4.70;;;16.20;99.90;;;;;;5036847;28;20400;-66
2023/10/07 09:12:48;;;;;;;7.63;4.68;;;16.30;99.90;;;;;;5036799;28;20121;-68
2023/10/07 09:15:26;;;;;;;7.35;4.80;;;16.40;99.90;;;;;;5037631;28;20566;-68
2023/10/07 09:18:06;;;;;;;6.47;4.63;;;16.40;99.90;;;;;;5042826;28;20053;-67
2023/10/07 09:20:36;;;;;;;7.70;4.95;;;16.60;99.90;;;;;;5037511;28;20048;-67
2023/10/07 09:23:14;;;;;;;8.35;4.70;;;16.70;99.90;;;;;;5039834;28;20464;-69
2023/10/07 09:25:50;;;;;;;;;;;16.80;99.90;;;;;;5036422;28;20048;-68
2023/10/07 09:28:29;;;;;;;11.73;4.97;;;17.00;99.90;;;;;;5035356;28;19927;-67
2023/10/07 09:31:05;;;;;;;6.97;5.45;;;17.10;99.90;;;;;;5037440;28;20544;-68
2023/10/07 09:33:38;;;;;;;7.88;5.18;;;17.10;99.90;;;;;;5033578;28;20053;-66
2023/10/07 09:41:55;;;;;;;7.30;4.30;;;17.40;99.90;;;;;;5032263;28;20041;-66
2023/10/07 09:44:27;;;;;;;10.05;4.82;;;17.40;99.90;;;;;;5035870;28;20041;-69
2023/10/07 09:47:12;;;;;;;7.97;4.57;;;17.40;99.90;;;;;;5034175;28;20042;-67
2023/10/07 09:49:45;;;;;;;6.28;4.13;;;17.40;99.90;;;;;;5034107;28;20048;-68
2023/10/07 09:52:18;;;;;;;8.88;4.03;;;17.40;99.90;;;;;;5032434;28;20045;-69
2023/10/07 09:55:19;;;;;;;7.18;4.00;;;17.40;99.90;;;;;;5035435;28;20086;-67
2023/10/07 09:58:05;;;;;;;6.78;4.38;;;17.40;99.90;;;;;;5036569;28;20045;-67
2023/10/07 10:01:05;;;;;;;8.13;4.63;;;17.50;99.90;;;;;;5040089;28;20076;-67
2023/10/07 10:03:59;;;;;;;9.63;4.43;;;17.50;99.90;;;;;;5039817;28;20418;-69
2023/10/07 10:06:56;;;;;;;6.40;4.40;;;17.60;99.90;;;;;;5042579;28;20091;-67
2023/10/07 10:09:42;;;;;;;8.48;4.78;;;17.60;99.90;;;;;;5025741;28;20573;-69
2023/10/07 10:12:27;;;;;;;6.13;4.32;;;17.60;99.90;;;;;;5037604;28;20037;-69
2023/10/07 10:17:53;;;;;;;6.75;3.83;;;17.70;99.90;;;;;;5038431;28;20136;-67
2023/10/07 10:20:42;;;;;;;8.20;4.32;;;17.70;99.90;;;;;;5040347;28;20051;-67
2023/10/07 10:23:19;;;;;;;9.55;4.20;;;17.70;99.90;;;;;;5037795;28;20048;-68
2023/10/07 10:25:55;;;;;;;10.15;3.53;;;17.70;99.90;;;;;;5037502;28;20620;-67
2023/10/07 10:28:31;;;;;;;6.95;4.20;;;17.80;99.90;;;;;;5040518;28;20171;-68
2023/10/07 10:30:58;;;;;;;7.35;3.75;;;17.90;99.90;;;;;;5034068;28;20041;-67
2023/10/07 10:33:31;;;;;;;10.07;4.60;;;18.00;99.90;;;;;;5039016;28;20029;-67
2023/10/07 10:36:07;;;;;;;9.77;5.13;;;18.10;99.90;;;;;;5038559;28;20048;-68
2023/10/07 10:38:40;;;;;;;10.88;4.80;;;18.20;99.90;;;;;;5036068;28;20069;-68
2023/10/07 10:41:13;;;;;;;7.45;3.92;;;18.20;99.90;;;;;;5035903;28;20051;-68
2023/10/07 10:43:40;;;;;;;6.22;3.97;;;18.30;99.90;;;;;;5034088;28;20045;-68
2023/10/07 10:46:12;;;;;;;8.93;3.97;;;18.30;99.90;;;;;;5037709;28;20048;-67
2023/10/07 10:48:44;;;;;;;7.80;4.13;;;18.40;99.90;;;;;;5038388;28;20042;-68
2023/10/07 10:51:16;;;;;;;5.90;3.85;;;18.50;99.90;;;;;;5033900;28;20532;-69
2023/10/07 10:53:49;;;;;;;7.65;4.15;;;18.60;99.90;;;;;;5035832;28;20057;-66
2023/10/07 10:56:21;;;;;;;6.50;3.65;;;18.70;99.90;;;;;;5038807;28;20124;-66
2023/10/07 10:58:53;;;;;;;6.18;3.33;;;18.80;99.90;;;;;;5035955;28;20457;-67
2023/10/07 11:01:25;;;;;;;9.77;3.22;;;18.90;99.90;;;;;;5033718;28;20049;-68
2023/10/07 11:04:00;;;;;;;5.55;3.05;;;19.00;99.90;;;;;;5041023;28;20037;-69
2023/10/07 11:06:33;;;;;;;5.80;2.85;;;19.00;99.90;;;;;;5030618;28;20037;-68
2023/10/07 11:09:05;;;;;;;9.52;4.65;;;19.00;99.90;;;;;;5036373;28;20037;-68
2023/10/07 11:11:37;;;;;;;5.35;2.90;;;19.10;99.90;;;;;;5036231;28;20041;-64
2023/10/07 11:14:09;;;;;;;4.85;3.42;;;19.10;99.90;;;;;;5040365;28;20063;-68
2023/10/07 11:16:50;;;;;;;5.90;3.17;;;19.10;99.90;;;;;;5041357;28;20045;-67
2023/10/07 11:19:22;;;;;;;7.03;3.60;;;19.10;99.90;;;;;;5035575;28;20048;-68
2023/10/07 11:21:49;;;;;;;5.20;3.17;;;19.20;99.90;;;;;;5040636;28;20041;-69
2023/10/07 11:24:25;;;;;;;5.40;3.13;;;19.10;99.90;;;;;;5037323;28;20051;-68
2023/10/07 11:26:56;;;;;;;6.00;3.10;;;19.00;99.90;;;;;;5024664;28;20476;-68
2023/10/07 11:29:29;;;;;;;4.55;2.85;;;19.00;99.90;;;;;;5034371;28;20128;-68
2023/10/07 11:32:06;;;;;;;4.82;3.20;;;19.00;99.90;;;;;;5019146;28;20128;-68
2023/10/07 11:34:40;;;;;;;6.82;3.10;;;19.00;99.90;;;;;;5036164;28;20052;-67
2023/10/07 11:37:13;;;;;;;4.45;2.95;;;19.00;99.90;;;;;;5037030;28;20045;-67
2023/10/07 11:39:46;;;;;;;5.38;3.05;;;19.00;99.90;;;;;;5040330;28;20417;-67
2023/10/07 11:42:17;;;;;;;4.43;2.97;;;19.00;99.90;;;;;;5035068;28;20539;-67
2023/10/07 11:44:54;;;;;;;4.72;2.75;;;19.00;99.90;;;;;;5035376;28;20041;-67
2023/10/07 11:47:26;;;;;;;5.78;3.03;;;19.00;99.90;;;;;;5036606;28;20041;-67
2023/10/07 11:50:00;;;;;;;6.40;3.10;;;19.00;99.90;;;;;;5037315;28;20037;-68
2023/10/07 11:52:33;;;;;;;;;;;19.10;99.90;;;;;;5039590;28;20134;-68
2023/10/07 11:55:07;;;;;;;4.47;3.00;;;19.10;99.90;;;;;;5036930;28;20538;-67
2023/10/07 11:57:39;;;;;;;4.88;2.85;;;19.10;99.90;;;;;;5037851;28;20124;-67
2023/10/07 12:00:34;;;;;;;8.23;2.80;;;19.10;99.90;;;;;;5033965;28;20033;-66
2023/10/07 12:03:04;;;;;;;6.20;3.10;;;19.20;99.90;;;;;;5036029;28;20684;-66
2023/10/07 12:05:42;;;;;;;4.80;2.88;;;19.30;99.90;;;;;;5034960;28;20501;-66
2023/10/07 12:08:15;;;;;;;4.15;2.50;;;19.30;99.90;;;;;;5045907;28;20049;-68
2023/10/07 12:10:49;;;;;;;4.75;2.65;;;19.30;99.90;;;;;;5033205;28;20041;-68
2023/10/07 12:13:16;;;;;;;5.00;2.80;;;19.40;99.90;;;;;;5037673;28;20131;-66
2023/10/07 12:15:44;;;;;;;5.07;2.70;;;19.50;99.90;;;;;;5033898;28;20045;-67
2023/10/07 12:18:16;;;;;;;5.82;3.10;;;19.70;99.90;;;;;;5036969;28;20049;-68
2023/10/07 12:20:50;;;;;;;5.30;3.03;;;19.80;99.90;;;;;;5036939;28;20048;-67
2023/10/07 12:23:17;;;;;;;8.23;3.20;;;20.00;99.90;;;;;;5036766;28;20041;-69
2023/10/07 12:25:49;;;;;;;4.82;2.78;;;20.20;99.90;;;;;;5036449;28;20040;-67
2023/10/07 12:28:21;;;;;;;4.95;2.95;;;20.40;99.90;;;;;;5035670;28;20045;-69
2023/10/07 12:30:49;;;;;;;5.28;2.45;;;20.40;99.90;;;;;;5040013;28;20110;-67
2023/10/07 12:33:21;;;;;;;5.00;3.00;;;20.40;99.90;;;;;;5039230;28;20044;-67
2023/10/07 12:35:48;;;;;;;7.82;2.78;;;20.40;99.90;;;;;;5035450;28;20044;-69
2023/10/07 12:38:20;;;;;;;4.90;3.03;;;20.40;99.90;;;;;;5037352;28;20450;-68
2023/10/07 12:40:52;;;;;;;5.32;3.03;;;20.40;99.90;;;;;;5039601;28;20045;-69
2023/10/07 12:43:24;;;;;;;4.10;2.92;;;20.40;99.90;;;;;;5036789;28;20073;-69
2023/10/07 12:45:56;;;;;;;7.53;2.47;;;20.20;99.90;;;;;;5037820;28;20580;-69
2023/10/07 12:48:28;;;;;;;7.82;3.22;;;20.20;99.90;;;;;;5035307;28;20048;-69
2023/10/07 12:50:54;;;;;;;4.40;2.88;;;20.10;99.90;;;;;;5034819;28;20133;-67
2023/10/07 12:53:26;;;;;;;8.40;2.75;;;20.10;99.90;;;;;;5034903;28;20509;-67
2023/10/07 12:55:54;;;;;;;4.28;2.65;;;20.10;99.90;;;;;;5042272;28;20042;-68
2023/10/07 12:58:27;;;;;;;6.15;4.35;;;20.10;99.90;;;;;;5034344;28;20660;-68
2023/10/07 13:01:01;;;;;;;4.97;2.78;;;20.00;99.90;;;;;;5032238;28;20418;-69
2023/10/07 13:03:37;;;;;;;3.78;2.35;;;20.00;99.90;;;;;;5039213;28;20045;-68
2023/10/07 13:06:15;;;;;;;4.93;2.85;;;19.90;99.90;;;;;;5038488;28;20038;-68
2023/10/07 13:08:49;;;;;;;4.57;2.63;;;19.90;99.90;;;;;;5037283;28;20033;-68
2023/10/07 13:11:21;;;;;;;4.53;3.08;;;19.80;99.90;;;;;;5033551;28;20045;-68
2023/10/07 13:13:57;;;;;;;7.13;2.92;;;19.80;99.90;;;;;;5036721;28;20130;-69
2023/10/07 13:16:37;;;;;;;4.95;2.75;;;19.80;99.90;;;;;;5021805;28;20517;-69
2023/10/07 13:19:09;;;;;;;5.20;2.33;;;19.90;99.90;;;;;;5037565;28;20045;-69
2023/10/07 13:21:41;;;;;;;5.32;3.13;;;19.90;99.90;;;;;;5036992;28;20036;-69
2023/10/07 13:24:13;;;;;;;5.70;2.80;;;19.90;99.90;;;;;;5037411;28;20044;-69
2023/10/07 13:26:45;;;;;;;5.05;3.05;;;19.90;99.90;;;;;;5041412;28;20048;-67
2023/10/07 13:29:16;;;;;;;8.13;3.38;;;20.00;99.90;;;;;;5022412;28;20422;-69
2023/10/07 13:31:48;;;;;;;4.70;2.53;;;20.00;99.90;;;;;;5045885;28;20037;-67
2023/10/07 13:34:21;;;;;;;7.75;3.58;;;19.90;99.90;;;;;;5040758;28;20050;-68
2023/10/07 13:36:53;;;;;;;4.65;3.00;;;19.80;99.90;;;;;;5036585;28;20123;-68
2023/10/07 13:39:24;;;;;;;4.22;2.90;;;19.80;99.90;;;;;;5041935;28;20064;-68
2023/10/07 13:41:56;;;;;;;6.38;2.90;;;19.70;99.90;;;;;;5040953;28;20541;-68
2023/10/07 13:44:28;;;;;;;5.20;3.10;;;19.60;99.90;;;;;;5039383;28;20047;-67
2023/10/07 13:47:00;;;;;;;4.65;2.65;;;19.60;99.90;;;;;;5037037;28;20049;-66
2023/10/07 13:49:27;;;;;;;5.82;3.22;;;19.60;99.90;;;;;;5038400;28;20045;-68
2023/10/07 13:52:05;;;;;;;6.60;3.53;;;19.50;99.90;;;;;;5038178;28;20506;-68
2023/10/07 13:54:46;;;;;;;5.00;2.80;;;19.40;99.90;;;;;;5039951;28;20044;-68
2023/10/07 13:57:18;;;;;;;4.85;2.80;;;19.40;99.90;;;;;;5036793;28;20033;-67